createdAt,value
2022-12-25T00:01:06.401Z,6.45
2022-12-25T00:03:33.058Z,6.42
2022-12-25T00:05:59.895Z,6.56
2022-12-25T00:08:26.581Z,6.52
2022-12-25T00:11:00.620Z,6.60
2022-12-25T00:13:27.809Z,6.60
2022-12-25T00:15:54.333Z,6.43
2022-12-25T00:18:21.138Z,6.46
2022-12-25T00:20:57.285Z,6.45
2022-12-25T00:23:24.293Z,6.42
2022-12-25T00:25:51.047Z,6.48
2022-12-25T00:28:17.482Z,6.43
2022-12-25T00:30:43.988Z,6.46
2022-12-25T00:33:10.588Z,6.39
2022-12-25T00:35:37.084Z,6.39
2022-12-25T00:38:03.808Z,6.33
2022-12-25T00:40:30.211Z,6.39
2022-12-25T00:42:56.860Z,6.29
2022-12-25T00:45:23.268Z,6.33
2022-12-25T00:47:49.689Z,6.27
2022-12-25T00:50:16.249Z,6.21
2022-12-25T00:52:42.624Z,6.14
2022-12-25T00:55:09.457Z,6.24
2022-12-25T00:57:36.092Z,6.16
2022-12-25T01:00:02.826Z,6.19
2022-12-25T01:02:29.317Z,6.21
2022-12-25T01:04:56.882Z,6.25
2022-12-25T01:07:25.695Z,6.18
2022-12-25T01:10:10.577Z,6.22
2022-12-25T01:12:45.220Z,6.16
2022-12-25T01:15:13.797Z,6.11
2022-12-25T01:17:41.210Z,6.04
2022-12-25T01:20:08.668Z,6.10
2022-12-25T01:22:35.155Z,6.05
2022-12-25T01:25:03.433Z,6.05
2022-12-25T01:27:29.849Z,6.08
2022-12-25T01:29:56.232Z,5.98
2022-12-25T01:32:22.666Z,5.96
2022-12-25T01:34:53.887Z,5.89
2022-12-25T01:37:24.573Z,5.95
2022-12-25T01:39:51.386Z,5.95
2022-12-25T01:42:19.746Z,5.88
2022-12-25T01:44:46.097Z,5.91
2022-12-25T01:47:13.259Z,5.73
2022-12-25T01:49:42.486Z,5.71
2022-12-25T01:52:23.896Z,5.66
2022-12-25T01:55:00.464Z,5.57
2022-12-25T01:57:30.637Z,5.66
2022-12-25T01:59:59.063Z,5.62
2022-12-25T02:02:26.905Z,5.65
2022-12-25T02:05:30.903Z,5.67
2022-12-25T02:08:01.901Z,5.54
2022-12-25T02:10:28.683Z,5.57
2022-12-25T02:12:55.605Z,5.51
2022-12-25T02:15:27.773Z,5.58
2022-12-25T02:18:02.911Z,5.39
2022-12-25T02:20:52.243Z,5.44
2022-12-25T02:23:54.105Z,5.41
2022-12-25T02:27:28.210Z,5.44
2022-12-25T02:30:00.684Z,5.36
2022-12-25T02:32:35.905Z,5.15
2022-12-25T02:35:34.672Z,5.20
2022-12-25T02:38:07.173Z,5.07
2022-12-25T02:40:42.332Z,5.08
2022-12-25T02:43:35.250Z,5.15
2022-12-25T02:46:25.400Z,5.23
2022-12-25T02:49:25.264Z,5.11
2022-12-25T02:52:26.113Z,5.23
2022-12-25T02:55:26.404Z,5.09
2022-12-25T02:58:19.535Z,5.22
2022-12-25T03:01:18.626Z,5.10
2022-12-25T03:04:08.857Z,5.18
2022-12-25T03:06:44.467Z,5.09
2022-12-25T03:09:36.097Z,5.16
2022-12-25T03:12:13.914Z,5.15
2022-12-25T03:14:59.065Z,5.18
2022-12-25T03:17:25.700Z,5.11
2022-12-25T03:20:11.719Z,5.05
2022-12-25T03:22:58.182Z,5.01
2022-12-25T03:25:42.986Z,5.06
2022-12-25T03:28:09.402Z,5.10
2022-12-25T03:31:07.672Z,5.23
2022-12-25T03:34:13.621Z,5.34
2022-12-25T03:37:16.366Z,5.37
2022-12-25T03:40:01.409Z,5.39
2022-12-25T03:43:10.210Z,5.38
2022-12-25T03:46:05.460Z,5.48
2022-12-25T03:48:54.348Z,5.51
2022-12-25T03:51:47.915Z,5.46
2022-12-25T03:54:36.341Z,5.55
2022-12-25T03:57:21.752Z,5.44
2022-12-25T04:00:06.503Z,5.41
2022-12-25T04:02:52.163Z,5.64
2022-12-25T04:05:37.519Z,5.60
2022-12-25T04:08:22.547Z,5.57
2022-12-25T04:11:07.749Z,5.56
2022-12-25T04:13:53.071Z,5.61
2022-12-25T04:16:38.235Z,5.57
2022-12-25T04:19:29.085Z,5.36
2022-12-25T04:22:16.025Z,5.40
2022-12-25T04:25:00.913Z,5.55
2022-12-25T04:27:46.038Z,5.58
2022-12-25T04:30:31.123Z,5.68
2022-12-25T04:33:19.115Z,5.64
2022-12-25T04:36:07.640Z,5.64
2022-12-25T04:38:34.646Z,5.77
2022-12-25T04:41:01.489Z,5.68
2022-12-25T04:43:27.923Z,5.74
2022-12-25T04:45:55.199Z,5.88
2022-12-25T04:48:22.112Z,5.86
2022-12-25T04:50:48.474Z,5.84
2022-12-25T04:53:15.710Z,5.65
2022-12-25T04:55:42.139Z,5.72
2022-12-25T04:58:08.679Z,5.76
2022-12-25T05:00:35.065Z,5.78
2022-12-25T05:03:01.626Z,5.82
2022-12-25T05:05:28.122Z,5.74
2022-12-25T05:07:54.721Z,5.82
2022-12-25T05:10:21.432Z,5.78
2022-12-25T05:12:47.808Z,5.82
2022-12-25T05:15:14.671Z,5.86
2022-12-25T05:17:41.051Z,5.74
2022-12-25T05:20:07.812Z,5.87
2022-12-25T05:22:34.173Z,5.96
2022-12-25T05:25:00.600Z,5.95
2022-12-25T05:27:26.977Z,5.85
2022-12-25T05:29:53.394Z,5.84
2022-12-25T05:32:19.759Z,5.95
2022-12-25T05:34:48.019Z,5.94
2022-12-25T05:37:14.467Z,5.99
2022-12-25T05:39:40.871Z,5.75
2022-12-25T05:42:07.264Z,5.70
2022-12-25T05:44:33.646Z,5.75
2022-12-25T05:47:00.711Z,5.75
2022-12-25T05:49:28.152Z,5.80
2022-12-25T05:51:54.546Z,5.71
2022-12-25T05:54:22.298Z,5.81
2022-12-25T05:56:48.685Z,5.78
2022-12-25T05:59:15.108Z,5.73
2022-12-25T06:01:41.560Z,5.70
2022-12-25T06:04:12.467Z,5.65
2022-12-25T06:06:39.541Z,5.73
2022-12-25T06:09:05.939Z,5.75
2022-12-25T06:11:32.321Z,5.90
2022-12-25T06:13:58.777Z,5.83
2022-12-25T06:16:37.739Z,5.86
2022-12-25T06:19:06.619Z,5.79
2022-12-25T06:21:33.062Z,5.85
2022-12-25T06:24:00.441Z,5.96
2022-12-25T06:26:27.408Z,5.95
2022-12-25T06:28:53.915Z,5.96
2022-12-25T06:31:22.830Z,5.93
2022-12-25T06:33:49.459Z,5.89
2022-12-25T06:36:19.296Z,6.01
2022-12-25T06:38:46.256Z,5.99
2022-12-25T06:41:15.838Z,6.03
2022-12-25T06:43:43.590Z,5.88
2022-12-25T06:46:12.436Z,5.87
2022-12-25T06:48:40.716Z,5.76
2022-12-25T06:51:07.485Z,5.88
2022-12-25T06:53:39.787Z,5.73
2022-12-25T06:56:09.555Z,5.76
2022-12-25T06:58:45.573Z,5.87
2022-12-25T07:01:24.473Z,5.94
2022-12-25T07:03:56.435Z,5.89
2022-12-25T07:06:23.283Z,5.97
2022-12-25T07:08:49.831Z,6.02
2022-12-25T07:11:16.693Z,6.01
2022-12-25T07:13:44.043Z,5.83
2022-12-25T07:16:12.009Z,6.04
2022-12-25T07:18:38.916Z,6.01
2022-12-25T07:21:16.986Z,5.96
2022-12-25T07:23:44.081Z,5.90
2022-12-25T07:26:12.142Z,5.99
2022-12-25T07:28:44.618Z,5.94
2022-12-25T07:31:16.742Z,5.99
2022-12-25T07:33:43.780Z,6.02
2022-12-25T07:36:12.855Z,6.17
2022-12-25T07:38:40.676Z,6.06
2022-12-25T07:41:10.632Z,5.96
2022-12-25T07:43:37.338Z,6.16
2022-12-25T07:46:03.966Z,6.16
2022-12-25T07:48:30.497Z,6.25
2022-12-25T07:51:11.153Z,6.25
2022-12-25T07:53:38.850Z,6.28
2022-12-25T07:56:16.090Z,6.31
2022-12-25T07:58:50.147Z,6.37
2022-12-25T08:01:25.387Z,6.20
2022-12-25T08:03:58.251Z,6.20
2022-12-25T08:06:29.767Z,6.32
2022-12-25T08:09:05.864Z,6.36
2022-12-25T08:11:32.605Z,6.37
2022-12-25T08:13:59.127Z,6.47
2022-12-25T08:16:26.034Z,6.52
2022-12-25T08:18:53.547Z,6.58
2022-12-25T08:21:19.921Z,6.43
2022-12-25T08:23:48.310Z,6.34
2022-12-25T08:26:19.429Z,6.41
2022-12-25T08:28:45.986Z,6.35
2022-12-25T08:31:23.246Z,6.60
2022-12-25T08:33:52.802Z,6.90
2022-12-25T08:36:19.908Z,7.32
2022-12-25T08:38:46.789Z,7.35
2022-12-25T08:41:14.316Z,8.43
2022-12-25T08:43:41.083Z,8.76
2022-12-25T08:46:08.364Z,9.86
2022-12-25T08:48:35.297Z,10.43
2022-12-25T08:51:02.723Z,10.50
2022-12-25T08:53:29.192Z,9.74
2022-12-25T08:56:06.492Z,10.20
2022-12-25T08:58:34.392Z,10.12
2022-12-25T09:01:01.231Z,10.41
2022-12-25T09:03:28.006Z,10.16
2022-12-25T09:05:55.189Z,9.66
2022-12-25T09:08:22.143Z,9.19
2022-12-25T09:10:48.980Z,9.29
2022-12-25T09:13:15.472Z,9.20
2022-12-25T09:15:42.002Z,9.29
2022-12-25T09:18:08.673Z,9.34
2022-12-25T09:20:35.388Z,9.59
2022-12-25T09:23:13.288Z,9.78
2022-12-25T09:25:40.124Z,9.71
2022-12-25T09:28:06.519Z,9.58
2022-12-25T09:30:32.935Z,9.51
2022-12-25T09:32:59.426Z,9.59
2022-12-25T09:35:26.034Z,9.65
2022-12-25T09:37:52.807Z,10.00
2022-12-25T09:40:21.417Z,10.11
2022-12-25T09:42:49.200Z,10.28
2022-12-25T09:45:24.038Z,10.41
2022-12-25T09:47:55.371Z,10.46
2022-12-25T09:50:34.041Z,10.61
2022-12-25T09:53:15.894Z,10.44
2022-12-25T09:56:11.100Z,10.59
2022-12-25T09:58:37.845Z,10.56
2022-12-25T10:02:11.518Z,10.45
2022-12-25T10:05:13.640Z,11.12
2022-12-25T10:08:12.776Z,10.76
2022-12-25T10:11:04.563Z,10.52
2022-12-25T10:14:03.324Z,10.71
2022-12-25T10:16:29.708Z,10.61
2022-12-25T10:19:10.097Z,10.56
2022-12-25T10:21:36.981Z,10.46
2022-12-25T10:24:21.844Z,10.37
2022-12-25T10:26:51.895Z,10.30
2022-12-25T10:29:20.448Z,10.22
2022-12-25T10:31:55.331Z,10.28
2022-12-25T10:34:23.224Z,10.33
2022-12-25T10:36:50.466Z,10.51
2022-12-25T10:39:23.504Z,10.58
2022-12-25T10:41:50.517Z,11.08
2022-12-25T10:44:24.606Z,11.25
2022-12-25T10:46:57.305Z,11.33
2022-12-25T10:49:29.167Z,11.33
2022-12-25T10:51:55.575Z,11.23
2022-12-25T10:54:32.815Z,11.24
2022-12-25T10:57:03.661Z,10.67
2022-12-25T10:59:35.733Z,10.59
2022-12-25T11:02:18.874Z,10.81
2022-12-25T11:04:46.087Z,10.75
2022-12-25T11:07:24.339Z,10.49
2022-12-25T11:09:59.243Z,10.59
2022-12-25T11:12:41.565Z,10.63
2022-12-25T11:15:34.186Z,10.68
2022-12-25T11:18:00.660Z,10.91
2022-12-25T11:20:27.258Z,10.70
2022-12-25T11:22:54.038Z,10.74
2022-12-25T11:25:26.667Z,10.89
2022-12-25T11:28:00.968Z,10.80
2022-12-25T11:30:30.907Z,10.74
2022-12-25T11:33:02.504Z,10.64
2022-12-25T11:35:32.485Z,10.34
2022-12-25T11:37:58.899Z,10.26
2022-12-25T11:40:30.762Z,10.33
2022-12-25T11:43:11.393Z,10.27
2022-12-25T11:45:51.598Z,10.32
2022-12-25T11:48:23.476Z,10.26
2022-12-25T11:50:53.737Z,10.23
2022-12-25T11:53:32.056Z,10.14
2022-12-25T11:56:17.294Z,10.11
2022-12-25T11:58:50.983Z,10.04
2022-12-25T12:01:21.850Z,10.08
2022-12-25T12:03:49.061Z,10.09
2022-12-25T12:06:52.255Z,10.15
2022-12-25T12:09:36.534Z,10.10
2022-12-25T12:12:11.883Z,10.20
2022-12-25T12:15:00.218Z,10.08
2022-12-25T12:17:26.797Z,10.10
2022-12-25T12:19:53.240Z,10.11
2022-12-25T12:22:25.442Z,10.08
2022-12-25T12:25:14.821Z,9.90
2022-12-25T12:27:42.091Z,9.86
2022-12-25T12:30:27.685Z,9.70
2022-12-25T12:32:58.620Z,9.71
2022-12-25T12:35:31.993Z,9.63
2022-12-25T12:38:23.109Z,9.65
2022-12-25T12:41:07.723Z,9.60
2022-12-25T12:43:45.080Z,9.48
2022-12-25T12:46:25.955Z,9.42
2022-12-25T12:49:23.944Z,9.45
2022-12-25T12:51:51.423Z,9.49
2022-12-25T12:54:23.985Z,9.42
2022-12-25T12:57:01.516Z,9.56
2022-12-25T12:59:40.266Z,9.50
2022-12-25T13:02:26.397Z,9.56
2022-12-25T13:05:00.928Z,9.58
2022-12-25T13:07:35.337Z,9.60
2022-12-25T13:10:30.781Z,9.64
2022-12-25T13:13:01.228Z,9.62
2022-12-25T13:15:32.505Z,9.65
2022-12-25T13:18:04.038Z,9.62
2022-12-25T13:20:40.464Z,9.59
2022-12-25T13:23:27.791Z,9.65
2022-12-25T13:25:56.419Z,9.64
2022-12-25T13:28:32.217Z,9.59
2022-12-25T13:31:17.223Z,9.50
2022-12-25T13:33:52.646Z,9.46
2022-12-25T13:36:19.288Z,9.46
2022-12-25T13:38:50.712Z,9.53
2022-12-25T13:41:42.927Z,9.49
2022-12-25T13:44:22.669Z,9.55
2022-12-25T13:46:49.385Z,9.56
2022-12-25T13:49:21.803Z,9.60
2022-12-25T13:51:48.980Z,9.65
2022-12-25T13:54:17.225Z,9.67
2022-12-25T13:57:15.441Z,9.70
2022-12-25T13:59:44.444Z,9.77
2022-12-25T14:02:20.802Z,9.93
2022-12-25T14:04:47.471Z,9.96
2022-12-25T14:07:20.919Z,9.93
2022-12-25T14:09:52.325Z,9.98
2022-12-25T14:12:19.871Z,10.05
2022-12-25T14:14:48.395Z,10.04
2022-12-25T14:17:14.952Z,10.01
2022-12-25T14:19:41.401Z,9.99
2022-12-25T14:22:18.827Z,9.99
2022-12-25T14:24:45.290Z,10.04
2022-12-25T14:27:28.039Z,10.04
2022-12-25T14:29:58.020Z,10.03
2022-12-25T14:32:27.944Z,10.04
2022-12-25T14:34:58.591Z,9.94
2022-12-25T14:37:29.641Z,9.98
2022-12-25T14:40:01.662Z,10.05
2022-12-25T14:42:31.801Z,10.04
2022-12-25T14:45:26.123Z,10.10
2022-12-25T14:47:55.547Z,10.11
2022-12-25T14:50:44.889Z,10.21
2022-12-25T14:53:23.598Z,10.24
2022-12-25T14:55:53.301Z,10.14
2022-12-25T14:58:26.731Z,10.12
2022-12-25T15:01:04.547Z,10.11
2022-12-25T15:03:35.297Z,10.14
2022-12-25T15:06:04.992Z,10.09
2022-12-25T15:08:33.666Z,10.05
2022-12-25T15:11:02.484Z,10.02
2022-12-25T15:13:31.056Z,9.85
2022-12-25T15:16:02.748Z,9.89
2022-12-25T15:18:35.257Z,9.79
2022-12-25T15:21:02.169Z,9.85
2022-12-25T15:23:28.611Z,9.82
2022-12-25T15:25:55.048Z,9.66
2022-12-25T15:28:21.440Z,9.70
2022-12-25T15:30:49.696Z,9.72
2022-12-25T15:33:18.284Z,9.72
2022-12-25T15:35:45.001Z,9.73
2022-12-25T15:38:12.872Z,9.74
2022-12-25T15:40:39.940Z,9.72
2022-12-25T15:43:20.878Z,9.72
2022-12-25T15:45:53.152Z,9.78
2022-12-25T15:48:19.578Z,9.80
2022-12-25T15:50:46.784Z,9.82
2022-12-25T15:53:13.279Z,9.77
2022-12-25T15:55:39.893Z,9.69
2022-12-25T15:58:06.282Z,9.80
2022-12-25T16:00:32.874Z,9.82
2022-12-25T16:02:59.563Z,9.78
2022-12-25T16:05:26.814Z,9.73
2022-12-25T16:07:53.222Z,9.71
2022-12-25T16:10:20.266Z,9.80
2022-12-25T16:12:46.731Z,9.79
2022-12-25T16:15:14.817Z,9.79
2022-12-25T16:17:41.634Z,9.80
2022-12-25T16:20:09.086Z,9.76
2022-12-25T16:22:39.944Z,9.79
2022-12-25T16:25:18.338Z,9.90
2022-12-25T16:27:45.397Z,9.82
2022-12-25T16:30:14.648Z,9.86
2022-12-25T16:32:42.367Z,9.88
2022-12-25T16:35:10.897Z,9.90
2022-12-25T16:37:37.831Z,9.78
2022-12-25T16:40:04.503Z,9.99
2022-12-25T16:42:31.007Z,9.94
2022-12-25T16:44:57.368Z,9.94
2022-12-25T16:47:24.155Z,9.90
2022-12-25T16:49:50.600Z,9.91
2022-12-25T16:52:17.017Z,9.89
2022-12-25T16:54:46.272Z,9.92
2022-12-25T16:57:13.639Z,9.80
2022-12-25T16:59:40.064Z,9.92
2022-12-25T17:02:06.675Z,9.96
2022-12-25T17:04:33.225Z,9.96
2022-12-25T17:06:59.645Z,9.93
2022-12-25T17:09:26.330Z,10.00
2022-12-25T17:11:52.960Z,10.07
2022-12-25T17:14:19.647Z,10.07
2022-12-25T17:16:46.191Z,10.01
2022-12-25T17:19:18.324Z,10.04
2022-12-25T17:21:45.203Z,10.08
2022-12-25T17:24:11.757Z,10.23
2022-12-25T17:26:38.447Z,10.26
2022-12-25T17:29:04.879Z,10.24
2022-12-25T17:31:31.512Z,10.25
2022-12-25T17:34:01.488Z,10.26
2022-12-25T17:36:28.072Z,10.40
2022-12-25T17:38:54.480Z,10.43
2022-12-25T17:41:21.729Z,10.38
2022-12-25T17:43:48.370Z,10.45
2022-12-25T17:46:18.144Z,10.37
2022-12-25T17:48:45.689Z,10.44
2022-12-25T17:51:14.612Z,10.42
2022-12-25T17:53:43.246Z,10.56
2022-12-25T17:56:10.278Z,10.48
2022-12-25T17:58:37.893Z,10.47
2022-12-25T18:01:11.675Z,10.49
2022-12-25T18:03:38.773Z,10.41
2022-12-25T18:06:13.230Z,10.31
2022-12-25T18:08:41.076Z,10.39
2022-12-25T18:11:09.653Z,10.44
2022-12-25T18:13:37.113Z,10.38
2022-12-25T18:16:06.444Z,10.33
2022-12-25T18:18:33.344Z,10.49
2022-12-25T18:20:59.851Z,10.36
2022-12-25T18:23:26.336Z,10.43
2022-12-25T18:25:52.756Z,10.50
2022-12-25T18:28:19.686Z,10.46
2022-12-25T18:30:46.683Z,10.44
2022-12-25T18:33:13.847Z,10.48
2022-12-25T18:35:42.807Z,10.54
2022-12-25T18:38:10.969Z,10.56
2022-12-25T18:40:45.291Z,10.52
2022-12-25T18:43:12.884Z,10.47
2022-12-25T18:45:39.814Z,10.54
2022-12-25T18:48:06.552Z,10.64
2022-12-25T18:50:34.427Z,10.61
2022-12-25T18:53:01.507Z,10.57
2022-12-25T18:55:28.260Z,10.61
2022-12-25T18:57:55.154Z,10.51
2022-12-25T19:00:22.194Z,10.61
2022-12-25T19:02:49.241Z,10.58
2022-12-25T19:05:16.860Z,10.59
2022-12-25T19:07:43.441Z,10.54
2022-12-25T19:10:10.452Z,10.53
2022-12-25T19:12:36.871Z,10.47
2022-12-25T19:15:03.882Z,10.40
2022-12-25T19:17:32.222Z,10.44
2022-12-25T19:19:59.051Z,10.39
2022-12-25T19:22:26.503Z,10.37
2022-12-25T19:24:53.149Z,10.42
2022-12-25T19:27:19.616Z,10.47
2022-12-25T19:29:46.382Z,10.37
2022-12-25T19:32:12.779Z,10.37
2022-12-25T19:34:39.157Z,10.36
2022-12-25T19:37:05.891Z,10.27
2022-12-25T19:39:32.350Z,10.28
2022-12-25T19:41:58.734Z,10.33
2022-12-25T19:44:25.172Z,10.43
2022-12-25T19:46:51.586Z,10.30
2022-12-25T19:49:18.045Z,10.40
2022-12-25T19:51:46.264Z,10.51
2022-12-25T19:54:15.494Z,10.44
2022-12-25T19:56:43.522Z,10.50
2022-12-25T19:59:12.653Z,10.47
2022-12-25T20:01:39.250Z,10.47
2022-12-25T20:04:08.708Z,10.55
2022-12-25T20:06:36.691Z,10.44
2022-12-25T20:09:09.578Z,10.35
2022-12-25T20:11:37.536Z,10.49
2022-12-25T20:14:05.553Z,10.45
2022-12-25T20:16:32.736Z,10.52
2022-12-25T20:18:59.600Z,10.62
2022-12-25T20:21:30.013Z,10.70
2022-12-25T20:23:57.165Z,10.76
2022-12-25T20:26:26.422Z,10.81
2022-12-25T20:28:52.828Z,10.84
2022-12-25T20:31:22.827Z,10.88
2022-12-25T20:33:49.648Z,10.76
2022-12-25T20:36:16.365Z,10.91
2022-12-25T20:38:42.773Z,10.93
2022-12-25T20:41:29.108Z,10.74
2022-12-25T20:43:56.386Z,10.88
2022-12-25T20:46:23.901Z,11.02
2022-12-25T20:48:50.457Z,11.01
2022-12-25T20:51:20.080Z,10.98
2022-12-25T20:53:46.880Z,11.04
2022-12-25T20:56:15.994Z,10.98
2022-12-25T20:58:42.901Z,11.02
2022-12-25T21:01:12.645Z,10.94
2022-12-25T21:03:40.363Z,11.07
2022-12-25T21:06:07.800Z,11.13
2022-12-25T21:08:34.492Z,11.05
2022-12-25T21:11:01.765Z,11.01
2022-12-25T21:13:29.743Z,11.05
2022-12-25T21:15:57.896Z,11.08
2022-12-25T21:18:26.768Z,11.08
2022-12-25T21:20:56.972Z,11.11
2022-12-25T21:23:26.567Z,10.94
2022-12-25T21:25:54.383Z,11.12
2022-12-25T21:28:22.484Z,11.11
2022-12-25T21:30:49.011Z,11.10
2022-12-25T21:33:34.449Z,11.09
2022-12-25T21:36:11.179Z,11.12
2022-12-25T21:38:38.275Z,11.10
2022-12-25T21:41:06.938Z,10.99
2022-12-25T21:43:34.825Z,10.90
2022-12-25T21:46:07.282Z,10.97
2022-12-25T21:48:35.033Z,10.88
2022-12-25T21:51:41.216Z,10.91
2022-12-25T21:54:08.663Z,10.83
2022-12-25T21:56:43.537Z,10.81
2022-12-25T21:59:13.367Z,10.76
2022-12-25T22:01:39.870Z,10.84
2022-12-25T22:04:09.002Z,10.91
2022-12-25T22:06:54.564Z,10.96
2022-12-25T22:09:21.908Z,10.91
2022-12-25T22:12:06.747Z,10.97
2022-12-25T22:14:56.587Z,10.93
2022-12-25T22:17:46.469Z,10.92
2022-12-25T22:20:19.868Z,10.90
2022-12-25T22:22:46.297Z,10.87
2022-12-25T22:25:13.729Z,10.92
2022-12-25T22:27:41.762Z,10.92
2022-12-25T22:30:12.402Z,10.95
2022-12-25T22:32:39.100Z,10.97
2022-12-25T22:35:06.257Z,11.02
2022-12-25T22:37:32.866Z,11.10
2022-12-25T22:40:01.262Z,11.05
2022-12-25T22:42:28.183Z,11.04
2022-12-25T22:44:54.592Z,11.11
2022-12-25T22:47:21.072Z,11.12
2022-12-25T22:49:47.461Z,11.14
2022-12-25T22:52:14.258Z,11.08
2022-12-25T22:54:40.662Z,10.98
2022-12-25T22:57:07.076Z,11.05
2022-12-25T22:59:33.839Z,11.14
2022-12-25T23:02:00.962Z,11.15
2022-12-25T23:04:28.357Z,11.07
2022-12-25T23:06:55.612Z,11.02
2022-12-25T23:09:27.565Z,11.04
2022-12-25T23:11:56.105Z,10.99
2022-12-25T23:14:41.786Z,11.05
2022-12-25T23:17:32.056Z,11.04
2022-12-25T23:20:18.991Z,11.11
2022-12-25T23:23:17.090Z,10.97
2022-12-25T23:26:02.634Z,10.98
2022-12-25T23:28:47.946Z,11.01
2022-12-25T23:31:14.500Z,10.96
2022-12-25T23:33:41.007Z,10.93
2022-12-25T23:36:07.654Z,10.99
2022-12-25T23:38:34.049Z,10.97
2022-12-25T23:41:00.520Z,11.01
2022-12-25T23:43:27.124Z,10.96
2022-12-25T23:45:53.493Z,10.87
2022-12-25T23:48:19.861Z,10.85
2022-12-25T23:50:46.392Z,10.88
2022-12-25T23:53:12.781Z,10.88
2022-12-25T23:55:39.355Z,10.84
2022-12-25T23:58:05.826Z,10.85
